sensor_id;sensor_type;location;lat;lon;timestamp;temperature;humidity
49441;DHT22;35317;51.978;6.296;2023-07-13T00:04:23;17.10;89.70
49441;DHT22;35317;51.978;6.296;2023-07-13T00:09:25;17.10;89.90
49441;DHT22;35317;51.978;6.296;2023-07-13T00:14:28;17.10;89.90
49441;DHT22;35317;51.978;6.296;2023-07-13T00:19:29;17.00;89.90
49441;DHT22;35317;51.978;6.296;2023-07-13T00:24:30;17.00;90.00
49441;DHT22;35317;51.978;6.296;2023-07-13T00:29:31;17.00;90.10
49441;DHT22;35317;51.978;6.296;2023-07-13T00:34:34;16.90;90.20
49441;DHT22;35317;51.978;6.296;2023-07-13T00:39:35;16.90;90.30
49441;DHT22;35317;51.978;6.296;2023-07-13T00:44:36;16.80;90.30
49441;DHT22;35317;51.978;6.296;2023-07-13T00:49:37;16.80;90.40
49441;DHT22;35317;51.978;6.296;2023-07-13T00:54:40;16.70;90.50
49441;DHT22;35317;51.978;6.296;2023-07-13T00:59:47;16.70;90.60
49441;DHT22;35317;51.978;6.296;2023-07-13T01:04:51;16.60;90.60
49441;DHT22;35317;51.978;6.296;2023-07-13T01:09:52;16.60;90.70
49441;DHT22;35317;51.978;6.296;2023-07-13T01:15:00;16.60;90.80
49441;DHT22;35317;51.978;6.296;2023-07-13T01:20:01;16.50;90.80
49441;DHT22;35317;51.978;6.296;2023-07-13T01:25:02;16.50;90.80
49441;DHT22;35317;51.978;6.296;2023-07-13T01:30:04;16.50;90.90
49441;DHT22;35317;51.978;6.296;2023-07-13T01:35:05;16.40;91.00
49441;DHT22;35317;51.978;6.296;2023-07-13T01:40:09;16.40;91.10
49441;DHT22;35317;51.978;6.296;2023-07-13T01:45:10;16.30;91.10
49441;DHT22;35317;51.978;6.296;2023-07-13T01:50:11;16.30;91.20
49441;DHT22;35317;51.978;6.296;2023-07-13T01:55:11;16.30;91.30
49441;DHT22;35317;51.978;6.296;2023-07-13T02:00:13;16.20;91.30
49441;DHT22;35317;51.978;6.296;2023-07-13T02:05:14;16.20;91.40
49441;DHT22;35317;51.978;6.296;2023-07-13T02:10:15;16.10;91.70
49441;DHT22;35317;51.978;6.296;2023-07-13T02:15:17;16.10;91.60
49441;DHT22;35317;51.978;6.296;2023-07-13T02:20:18;16.10;91.60
49441;DHT22;35317;51.978;6.296;2023-07-13T02:25:18;16.10;91.70
49441;DHT22;35317;51.978;6.296;2023-07-13T02:30:20;16.10;91.80
49441;DHT22;35317;51.978;6.296;2023-07-13T02:35:21;16.10;92.00
49441;DHT22;35317;51.978;6.296;2023-07-13T02:40:22;16.10;92.00
49441;DHT22;35317;51.978;6.296;2023-07-13T02:45:23;16.10;92.10
49441;DHT22;35317;51.978;6.296;2023-07-13T02:50:24;16.10;92.10
49441;DHT22;35317;51.978;6.296;2023-07-13T02:55:25;16.00;92.20
49441;DHT22;35317;51.978;6.296;2023-07-13T03:00:25;16.00;92.30
49441;DHT22;35317;51.978;6.296;2023-07-13T03:05:26;15.90;92.40
49441;DHT22;35317;51.978;6.296;2023-07-13T03:10:27;15.90;92.50
49441;DHT22;35317;51.978;6.296;2023-07-13T03:15:28;15.80;92.70
49441;DHT22;35317;51.978;6.296;2023-07-13T03:20:33;15.80;92.80
49441;DHT22;35317;51.978;6.296;2023-07-13T03:25:35;15.70;92.90
49441;DHT22;35317;51.978;6.296;2023-07-13T03:30:36;15.70;93.00
49441;DHT22;35317;51.978;6.296;2023-07-13T03:35:40;15.70;93.10
49441;DHT22;35317;51.978;6.296;2023-07-13T03:40:41;15.70;93.20
49441;DHT22;35317;51.978;6.296;2023-07-13T03:45:43;15.70;93.30
49441;DHT22;35317;51.978;6.296;2023-07-13T03:50:44;15.60;93.40
49441;DHT22;35317;51.978;6.296;2023-07-13T03:55:44;15.60;93.60
49441;DHT22;35317;51.978;6.296;2023-07-13T04:00:45;15.60;93.70
49441;DHT22;35317;51.978;6.296;2023-07-13T04:05:46;15.50;93.70
49441;DHT22;35317;51.978;6.296;2023-07-13T04:10:47;15.50;93.80
49441;DHT22;35317;51.978;6.296;2023-07-13T04:15:47;15.50;93.90
49441;DHT22;35317;51.978;6.296;2023-07-13T04:20:49;15.50;94.10
49441;DHT22;35317;51.978;6.296;2023-07-13T04:25:52;15.50;94.10
49441;DHT22;35317;51.978;6.296;2023-07-13T04:30:54;15.60;94.20
49441;DHT22;35317;51.978;6.296;2023-07-13T04:35:56;15.60;94.30
49441;DHT22;35317;51.978;6.296;2023-07-13T04:41:00;15.60;94.40
49441;DHT22;35317;51.978;6.296;2023-07-13T04:46:10;15.60;94.50
49441;DHT22;35317;51.978;6.296;2023-07-13T04:51:12;15.70;94.60
49441;DHT22;35317;51.978;6.296;2023-07-13T04:56:12;15.80;94.70
49441;DHT22;35317;51.978;6.296;2023-07-13T05:01:13;15.80;94.70
49441;DHT22;35317;51.978;6.296;2023-07-13T05:06:14;15.90;94.80
49441;DHT22;35317;51.978;6.296;2023-07-13T05:11:15;16.10;95.00
49441;DHT22;35317;51.978;6.296;2023-07-13T05:16:16;16.20;95.00
49441;DHT22;35317;51.978;6.296;2023-07-13T05:21:16;16.50;94.90
49441;DHT22;35317;51.978;6.296;2023-07-13T05:26:17;16.70;94.80
49441;DHT22;35317;51.978;6.296;2023-07-13T05:31:18;16.80;94.90
49441;DHT22;35317;51.978;6.296;2023-07-13T05:36:19;16.90;94.50
49441;DHT22;35317;51.978;6.296;2023-07-13T05:41:20;17.10;94.50
49441;DHT22;35317;51.978;6.296;2023-07-13T05:46:21;17.30;94.40
49441;DHT22;35317;51.978;6.296;2023-07-13T05:51:22;17.50;94.40
49441;DHT22;35317;51.978;6.296;2023-07-13T05:56:22;17.60;94.30
49441;DHT22;35317;51.978;6.296;2023-07-13T06:01:26;17.60;94.20
49441;DHT22;35317;51.978;6.296;2023-07-13T06:06:30;17.70;94.10
49441;DHT22;35317;51.978;6.296;2023-07-13T06:11:31;17.80;94.10
49441;DHT22;35317;51.978;6.296;2023-07-13T06:16:39;17.90;94.20
49441;DHT22;35317;51.978;6.296;2023-07-13T06:21:43;18.00;94.20
49441;DHT22;35317;51.978;6.296;2023-07-13T06:26:44;18.10;94.20
49441;DHT22;35317;51.978;6.296;2023-07-13T06:31:44;18.30;94.30
49441;DHT22;35317;51.978;6.296;2023-07-13T06:36:45;18.40;94.20
49441;DHT22;35317;51.978;6.296;2023-07-13T06:41:46;18.60;94.10
49441;DHT22;35317;51.978;6.296;2023-07-13T06:46:49;18.90;94.00
49441;DHT22;35317;51.978;6.296;2023-07-13T06:51:50;19.10;93.80
49441;DHT22;35317;51.978;6.296;2023-07-13T06:56:51;19.20;93.60
49441;DHT22;35317;51.978;6.296;2023-07-13T07:01:52;19.40;93.40
49441;DHT22;35317;51.978;6.296;2023-07-13T07:06:53;19.50;93.20
49441;DHT22;35317;51.978;6.296;2023-07-13T07:11:54;19.60;93.10
49441;DHT22;35317;51.978;6.296;2023-07-13T07:16:55;19.80;92.90
49441;DHT22;35317;51.978;6.296;2023-07-13T07:21:55;20.00;92.80
49441;DHT22;35317;51.978;6.296;2023-07-13T07:26:56;20.20;92.50
49441;DHT22;35317;51.978;6.296;2023-07-13T07:31:59;20.10;92.20
49441;DHT22;35317;51.978;6.296;2023-07-13T07:37:01;20.00;92.20
49441;DHT22;35317;51.978;6.296;2023-07-13T07:42:02;19.90;92.40
49441;DHT22;35317;51.978;6.296;2023-07-13T07:47:03;19.90;92.40
49441;DHT22;35317;51.978;6.296;2023-07-13T07:52:04;20.00;92.40
49441;DHT22;35317;51.978;6.296;2023-07-13T07:57:06;20.00;92.20
49441;DHT22;35317;51.978;6.296;2023-07-13T08:02:10;20.00;92.20
49441;DHT22;35317;51.978;6.296;2023-07-13T08:07:11;20.00;92.20
49441;DHT22;35317;51.978;6.296;2023-07-13T08:12:12;20.10;92.10
49441;DHT22;35317;51.978;6.296;2023-07-13T08:17:13;20.20;92.00
49441;DHT22;35317;51.978;6.296;2023-07-13T08:22:13;20.20;92.00
49441;DHT22;35317;51.978;6.296;2023-07-13T08:27:14;20.30;91.90
49441;DHT22;35317;51.978;6.296;2023-07-13T08:32:15;20.50;91.70
49441;DHT22;35317;51.978;6.296;2023-07-13T08:37:16;20.80;91.40
49441;DHT22;35317;51.978;6.296;2023-07-13T08:47:33;21.20;90.80
49441;DHT22;35317;51.978;6.296;2023-07-13T08:52:38;21.20;90.60
49441;DHT22;35317;51.978;6.296;2023-07-13T08:57:42;21.10;90.50
49441;DHT22;35317;51.978;6.296;2023-07-13T09:02:57;21.10;90.30
49441;DHT22;35317;51.978;6.296;2023-07-13T09:13:58;21.20;90.10
49441;DHT22;35317;51.978;6.296;2023-07-13T09:19:23;21.40;90.00
49441;DHT22;35317;51.978;6.296;2023-07-13T09:24:38;21.60;89.20
49441;DHT22;35317;51.978;6.296;2023-07-13T09:29:47;21.90;88.50
49441;DHT22;35317;51.978;6.296;2023-07-13T09:34:52;22.30;87.10
49441;DHT22;35317;51.978;6.296;2023-07-13T09:39:55;22.40;85.30
49441;DHT22;35317;51.978;6.296;2023-07-13T09:45:01;22.40;85.10
49441;DHT22;35317;51.978;6.296;2023-07-13T09:50:10;22.30;84.70
49441;DHT22;35317;51.978;6.296;2023-07-13T10:00:28;22.90;82.90
49441;DHT22;35317;51.978;6.296;2023-07-13T10:05:38;23.20;79.80
49441;DHT22;35317;51.978;6.296;2023-07-13T10:10:42;23.50;78.10
49441;DHT22;35317;51.978;6.296;2023-07-13T10:15:44;23.60;77.10
49441;DHT22;35317;51.978;6.296;2023-07-13T10:20:45;23.60;75.30
49441;DHT22;35317;51.978;6.296;2023-07-13T10:25:47;23.10;80.00
49441;DHT22;35317;51.978;6.296;2023-07-13T10:30:48;21.70;85.80
49441;DHT22;35317;51.978;6.296;2023-07-13T10:35:55;21.10;89.40
49441;DHT22;35317;51.978;6.296;2023-07-13T10:41:15;20.80;90.70
49441;DHT22;35317;51.978;6.296;2023-07-13T10:46:24;20.80;91.10
49441;DHT22;35317;51.978;6.296;2023-07-13T10:51:30;20.90;91.50
49441;DHT22;35317;51.978;6.296;2023-07-13T10:56:32;20.90;92.00
49441;DHT22;35317;51.978;6.296;2023-07-13T11:01:50;21.00;92.50
49441;DHT22;35317;51.978;6.296;2023-07-13T11:06:59;21.20;92.50
49441;DHT22;35317;51.978;6.296;2023-07-13T11:12:48;21.50;92.60
49441;DHT22;35317;51.978;6.296;2023-07-13T11:17:54;21.90;91.90
49441;DHT22;35317;51.978;6.296;2023-07-13T11:23:16;22.40;90.70
49441;DHT22;35317;51.978;6.296;2023-07-13T11:28:23;22.40;89.40
49441;DHT22;35317;51.978;6.296;2023-07-13T11:33:51;22.50;89.90
49441;DHT22;35317;51.978;6.296;2023-07-13T11:39:19;22.60;90.30
49441;DHT22;35317;51.978;6.296;2023-07-13T11:44:46;22.50;89.30
49441;DHT22;35317;51.978;6.296;2023-07-13T11:49:50;22.40;89.70
49441;DHT22;35317;51.978;6.296;2023-07-13T11:54:55;22.50;89.10
49441;DHT22;35317;51.978;6.296;2023-07-13T12:00:17;22.60;88.60
49441;DHT22;35317;51.978;6.296;2023-07-13T12:05:59;22.60;88.90
49441;DHT22;35317;51.978;6.296;2023-07-13T12:11:11;22.90;88.20
49441;DHT22;35317;51.978;6.296;2023-07-13T12:16:30;23.10;86.50
49441;DHT22;35317;51.978;6.296;2023-07-13T12:21:38;23.40;85.60
49441;DHT22;35317;51.978;6.296;2023-07-13T12:26:39;23.70;84.00
49441;DHT22;35317;51.978;6.296;2023-07-13T12:31:43;23.80;82.60
49441;DHT22;35317;51.978;6.296;2023-07-13T12:36:59;24.00;81.90
49441;DHT22;35317;51.978;6.296;2023-07-13T12:42:20;24.10;79.90
49441;DHT22;35317;51.978;6.296;2023-07-13T12:47:29;24.00;79.30
49441;DHT22;35317;51.978;6.296;2023-07-13T12:52:33;24.00;79.30
49441;DHT22;35317;51.978;6.296;2023-07-13T12:57:39;24.20;78.70
49441;DHT22;35317;51.978;6.296;2023-07-13T13:02:50;24.80;78.20
49441;DHT22;35317;51.978;6.296;2023-07-13T13:07:52;25.10;76.50
49441;DHT22;35317;51.978;6.296;2023-07-13T13:12:53;25.10;75.50
49441;DHT22;35317;51.978;6.296;2023-07-13T13:17:54;25.00;74.70
49441;DHT22;35317;51.978;6.296;2023-07-13T13:22:55;25.10;74.30
49441;DHT22;35317;51.978;6.296;2023-07-13T13:27:56;25.10;72.10
49441;DHT22;35317;51.978;6.296;2023-07-13T13:32:57;24.40;70.70
49441;DHT22;35317;51.978;6.296;2023-07-13T13:37:58;23.20;75.00
49441;DHT22;35317;51.978;6.296;2023-07-13T13:42:59;21.90;79.30
49441;DHT22;35317;51.978;6.296;2023-07-13T13:48:00;21.00;83.90
49441;DHT22;35317;51.978;6.296;2023-07-13T13:53:01;20.70;85.50
49441;DHT22;35317;51.978;6.296;2023-07-13T13:58:02;20.80;86.00
49441;DHT22;35317;51.978;6.296;2023-07-13T14:03:04;21.00;85.60
49441;DHT22;35317;51.978;6.296;2023-07-13T14:08:20;21.00;85.10
49441;DHT22;35317;51.978;6.296;2023-07-13T14:13:30;21.10;85.60
49441;DHT22;35317;51.978;6.296;2023-07-13T14:18:35;21.20;86.40
49441;DHT22;35317;51.978;6.296;2023-07-13T14:23:36;21.50;87.30
49441;DHT22;35317;51.978;6.296;2023-07-13T14:28:41;22.00;87.20
49441;DHT22;35317;51.978;6.296;2023-07-13T14:33:44;22.20;87.60
49441;DHT22;35317;51.978;6.296;2023-07-13T14:38:45;22.20;87.50
49441;DHT22;35317;51.978;6.296;2023-07-13T14:43:46;22.10;87.70
49441;DHT22;35317;51.978;6.296;2023-07-13T14:48:49;22.30;88.40
49441;DHT22;35317;51.978;6.296;2023-07-13T14:53:50;22.70;89.10
49441;DHT22;35317;51.978;6.296;2023-07-13T14:58:51;23.30;88.10
49441;DHT22;35317;51.978;6.296;2023-07-13T15:03:53;23.60;86.90
49441;DHT22;35317;51.978;6.296;2023-07-13T15:08:54;23.80;86.10
49441;DHT22;35317;51.978;6.296;2023-07-13T15:13:56;23.80;85.10
49441;DHT22;35317;51.978;6.296;2023-07-13T15:18:58;23.80;84.70
49441;DHT22;35317;51.978;6.296;2023-07-13T15:23:59;23.80;84.50
49441;DHT22;35317;51.978;6.296;2023-07-13T15:29:01;23.80;84.60
49441;DHT22;35317;51.978;6.296;2023-07-13T15:34:09;23.70;85.00
49441;DHT22;35317;51.978;6.296;2023-07-13T15:39:16;23.70;85.00
49441;DHT22;35317;51.978;6.296;2023-07-13T15:44:29;23.60;80.50
49441;DHT22;35317;51.978;6.296;2023-07-13T15:49:31;23.40;80.50
49441;DHT22;35317;51.978;6.296;2023-07-13T15:54:32;23.20;76.20
49441;DHT22;35317;51.978;6.296;2023-07-13T15:59:33;23.10;75.60
49441;DHT22;35317;51.978;6.296;2023-07-13T16:04:34;22.90;74.40
49441;DHT22;35317;51.978;6.296;2023-07-13T16:09:35;22.90;74.00
49441;DHT22;35317;51.978;6.296;2023-07-13T16:14:38;22.90;74.10
49441;DHT22;35317;51.978;6.296;2023-07-13T16:19:41;22.80;73.70
49441;DHT22;35317;51.978;6.296;2023-07-13T16:24:43;22.80;73.60
49441;DHT22;35317;51.978;6.296;2023-07-13T16:29:45;22.60;74.20
49441;DHT22;35317;51.978;6.296;2023-07-13T16:34:46;22.50;74.90
49441;DHT22;35317;51.978;6.296;2023-07-13T16:39:54;22.60;74.90
49441;DHT22;35317;51.978;6.296;2023-07-13T16:44:58;22.80;75.00
49441;DHT22;35317;51.978;6.296;2023-07-13T16:49:59;23.00;74.20
49441;DHT22;35317;51.978;6.296;2023-07-13T16:55:05;22.90;74.50
49441;DHT22;35317;51.978;6.296;2023-07-13T17:00:25;22.90;74.50
49441;DHT22;35317;51.978;6.296;2023-07-13T17:05:41;23.10;74.20
49441;DHT22;35317;51.978;6.296;2023-07-13T17:10:43;23.20;73.20
49441;DHT22;35317;51.978;6.296;2023-07-13T17:15:46;23.20;72.80
49441;DHT22;35317;51.978;6.296;2023-07-13T17:20:56;23.30;72.30
49441;DHT22;35317;51.978;6.296;2023-07-13T17:25:57;23.30;71.70
49441;DHT22;35317;51.978;6.296;2023-07-13T17:30:59;23.20;71.70
49441;DHT22;35317;51.978;6.296;2023-07-13T17:36:02;23.20;71.70
49441;DHT22;35317;51.978;6.296;2023-07-13T17:41:10;23.10;71.80
49441;DHT22;35317;51.978;6.296;2023-07-13T17:46:17;23.10;72.10
49441;DHT22;35317;51.978;6.296;2023-07-13T17:51:22;23.00;72.10
49441;DHT22;35317;51.978;6.296;2023-07-13T17:56:23;23.00;72.40
49441;DHT22;35317;51.978;6.296;2023-07-13T18:01:26;22.90;72.60
49441;DHT22;35317;51.978;6.296;2023-07-13T18:06:35;22.90;73.10
49441;DHT22;35317;51.978;6.296;2023-07-13T18:11:38;22.80;73.40
49441;DHT22;35317;51.978;6.296;2023-07-13T18:16:49;22.70;73.20
49441;DHT22;35317;51.978;6.296;2023-07-13T18:22:39;22.60;73.40
49441;DHT22;35317;51.978;6.296;2023-07-13T18:27:40;22.40;73.90
49441;DHT22;35317;51.978;6.296;2023-07-13T18:32:44;22.20;74.40
49441;DHT22;35317;51.978;6.296;2023-07-13T18:37:48;22.20;74.70
49441;DHT22;35317;51.978;6.296;2023-07-13T18:42:49;22.00;75.10
49441;DHT22;35317;51.978;6.296;2023-07-13T18:47:55;21.80;75.40
49441;DHT22;35317;51.978;6.296;2023-07-13T18:52:57;21.70;75.90
49441;DHT22;35317;51.978;6.296;2023-07-13T18:57:58;21.50;76.40
49441;DHT22;35317;51.978;6.296;2023-07-13T19:02:59;21.30;76.90
49441;DHT22;35317;51.978;6.296;2023-07-13T19:08:01;21.20;77.80
49441;DHT22;35317;51.978;6.296;2023-07-13T19:13:05;21.10;78.80
49441;DHT22;35317;51.978;6.296;2023-07-13T19:18:13;20.90;79.20
49441;DHT22;35317;51.978;6.296;2023-07-13T19:28:39;20.60;80.50
49441;DHT22;35317;51.978;6.296;2023-07-13T19:33:41;20.50;81.00
49441;DHT22;35317;51.978;6.296;2023-07-13T19:38:43;20.40;81.30
49441;DHT22;35317;51.978;6.296;2023-07-13T19:43:44;20.20;81.80
49441;DHT22;35317;51.978;6.296;2023-07-13T19:48:48;20.10;82.20
49441;DHT22;35317;51.978;6.296;2023-07-13T19:54:01;20.00;82.60
49441;DHT22;35317;51.978;6.296;2023-07-13T19:59:22;19.90;83.50
49441;DHT22;35317;51.978;6.296;2023-07-13T20:04:27;19.70;83.90
49441;DHT22;35317;51.978;6.296;2023-07-13T20:09:29;19.60;84.70
49441;DHT22;35317;51.978;6.296;2023-07-13T20:14:34;19.40;85.30
49441;DHT22;35317;51.978;6.296;2023-07-13T20:19:35;19.40;85.80
49441;DHT22;35317;51.978;6.296;2023-07-13T20:24:37;19.20;86.20
49441;DHT22;35317;51.978;6.296;2023-07-13T20:29:38;19.20;87.00
49441;DHT22;35317;51.978;6.296;2023-07-13T20:34:39;19.00;87.40
49441;DHT22;35317;51.978;6.296;2023-07-13T20:39:41;18.90;88.10
49441;DHT22;35317;51.978;6.296;2023-07-13T20:44:42;18.80;89.40
49441;DHT22;35317;51.978;6.296;2023-07-13T20:49:43;18.70;89.50
49441;DHT22;35317;51.978;6.296;2023-07-13T20:54:44;18.60;90.10
49441;DHT22;35317;51.978;6.296;2023-07-13T20:59:52;18.40;90.40
49441;DHT22;35317;51.978;6.296;2023-07-13T21:04:53;18.30;90.60
49441;DHT22;35317;51.978;6.296;2023-07-13T21:09:55;18.20;90.80
49441;DHT22;35317;51.978;6.296;2023-07-13T21:14:57;18.10;91.00
49441;DHT22;35317;51.978;6.296;2023-07-13T21:19:58;18.00;91.30
49441;DHT22;35317;51.978;6.296;2023-07-13T21:25:00;17.80;91.50
49441;DHT22;35317;51.978;6.296;2023-07-13T21:30:01;17.80;91.70
49441;DHT22;35317;51.978;6.296;2023-07-13T21:35:02;17.70;92.00
49441;DHT22;35317;51.978;6.296;2023-07-13T21:40:14;17.70;92.20
49441;DHT22;35317;51.978;6.296;2023-07-13T21:45:24;17.60;92.40
49441;DHT22;35317;51.978;6.296;2023-07-13T21:50:35;17.50;92.60
49441;DHT22;35317;51.978;6.296;2023-07-13T21:55:38;17.40;92.80
49441;DHT22;35317;51.978;6.296;2023-07-13T22:00:39;17.40;93.00
49441;DHT22;35317;51.978;6.296;2023-07-13T22:05:40;17.30;93.20
49441;DHT22;35317;51.978;6.296;2023-07-13T22:10:45;17.20;93.40
49441;DHT22;35317;51.978;6.296;2023-07-13T22:15:46;17.10;93.60
49441;DHT22;35317;51.978;6.296;2023-07-13T22:20:51;17.00;93.80
49441;DHT22;35317;51.978;6.296;2023-07-13T22:25:55;16.90;94.00
49441;DHT22;35317;51.978;6.296;2023-07-13T22:30:57;16.90;94.20
49441;DHT22;35317;51.978;6.296;2023-07-13T22:35:59;16.80;94.30
49441;DHT22;35317;51.978;6.296;2023-07-13T22:41:00;16.70;94.50
49441;DHT22;35317;51.978;6.296;2023-07-13T22:46:03;16.70;94.70
49441;DHT22;35317;51.978;6.296;2023-07-13T22:51:11;16.70;95.00
49441;DHT22;35317;51.978;6.296;2023-07-13T22:56:14;16.70;95.10
49441;DHT22;35317;51.978;6.296;2023-07-13T23:06:32;16.60;95.40
49441;DHT22;35317;51.978;6.296;2023-07-13T23:11:34;16.60;95.60
49441;DHT22;35317;51.978;6.296;2023-07-13T23:16:35;16.60;95.80
49441;DHT22;35317;51.978;6.296;2023-07-13T23:21:36;16.50;95.90
49441;DHT22;35317;51.978;6.296;2023-07-13T23:26:37;16.50;96.10
49441;DHT22;35317;51.978;6.296;2023-07-13T23:31:38;16.50;96.20
49441;DHT22;35317;51.978;6.296;2023-07-13T23:36:39;16.50;96.60
49441;DHT22;35317;51.978;6.296;2023-07-13T23:41:40;16.70;96.60
49441;DHT22;35317;51.978;6.296;2023-07-13T23:46:45;16.80;96.60
49441;DHT22;35317;51.978;6.296;2023-07-13T23:51:54;16.90;96.60
49441;DHT22;35317;51.978;6.296;2023-07-13T23:56:58;17.00;96.60
